Cherry Log, GA

12:36 PM EDT on July 07, 2015 (GMT -0400)
Hideaway Trail | | Change Station
CLOSE
Current Station
Personal Weather Station
Location: Cherry Log, GA
Elevation: 2064 ft
Nearby Weather Stations

Elev 2064 ft 34.76 °N, 84.26 °W | Updated 12 seconds ago

Partly Cloudy
Partly Cloudy
80.7 °F
Feels Like 85 °F
N
0.0
Wind Variable Wind from SSW
Gusts 0.0 mph

Today
High -- | Low -- °F
--% Chance of Precip.
Yesterday
High -- | Low -- °F
Precip. -- in
6:30 AM 8:53 PM
Waning Gibbous, 63% visible
Pressure 30.16 in
Visibility 10.0 miles
Clouds Scattered Clouds 3700 ft
Mostly Cloudy 5000 ft
Mostly Cloudy 6500 ft
Heat Index 85 °F
Dew Point 73 °F
Humidity 76%
Rainfall 0.00 in
Snow Depth Not available.
UV 6 out of 12
Pollen 2.70 out of 12
Air Quality Not available.
Flu Activity Not available.
METAR KDNN 071615Z AUTO 00000KT 10SM SCT037 BKN050 BKN065 28/23 A3016 RMK AO2

More Conditions Fewer Conditions

Pressure 30.16 in
Visibility 10.0 miles
Clouds Scattered Clouds 3700 ft
Mostly Cloudy 5000 ft
Mostly Cloudy 6500 ft
Heat Index 85 °F
Dew Point 73 °F
Humidity 76%
Rainfall 0.00 in
Snow Depth Not available.
UV 6 out of 12
Pollen 2.70 out of 12
Air Quality Not available.
Flu Activity Not available.
METAR KDNN 071615Z AUTO 00000KT 10SM SCT037 BKN050 BKN065 28/23 A3016 RMK AO2

More Conditions Fewer Conditions

10-Day Weather Forecast

×

Almanac

Astronomy

Jul. 07, 2015 Rise Set
Actual Time
Civil Twilight
Nautical Twilight
Astronomical Twilight
Moon
Length of Visible Light
Length of Day
Tomorrow will be .
, % of the Moon is Illuminated

Today's Extremes

State Highs State Lows

Community

WunderPhotos

Upload Photos

1,835,843 photos uploaded!

WunderBlogs® & News

Nearby

Air Quality

  Air Quality AQ Index Pollutant
Not available.

Snow Depth

Station Depth Elevation

Earthquake Activity

City Distance Mag. Time & Date
Minimum magnitude displayed is 2.5.

Coastal Water Temperatures

Place Temperature

Stations

Nearby Weather Stations

Station Location Temp. Windchill Dew Point Humidity Wind Precip. Elev Updated Type